sensor_id;sensor_type;location;lat;lon;timestamp;temperature;humidity
10155;DHT22;5118;48.570;7.916;2023-10-31T00:02:23;11.10;99.90
10155;DHT22;5118;48.570;7.916;2023-10-31T00:04:51;11.00;99.90
10155;DHT22;5118;48.570;7.916;2023-10-31T00:07:19;11.00;99.90
10155;DHT22;5118;48.570;7.916;2023-10-31T00:09:47;11.00;99.90
10155;DHT22;5118;48.570;7.916;2023-10-31T00:12:16;11.00;99.90
10155;DHT22;5118;48.570;7.916;2023-10-31T00:14:44;11.00;99.90
10155;DHT22;5118;48.570;7.916;2023-10-31T00:17:14;11.00;99.90
10155;DHT22;5118;48.570;7.916;2023-10-31T00:19:42;11.10;99.90
10155;DHT22;5118;48.570;7.916;2023-10-31T00:22:11;11.10;99.90
10155;DHT22;5118;48.570;7.916;2023-10-31T00:24:39;11.20;99.90
10155;DHT22;5118;48.570;7.916;2023-10-31T00:27:08;11.20;99.90
10155;DHT22;5118;48.570;7.916;2023-10-31T00:29:37;11.30;99.90
10155;DHT22;5118;48.570;7.916;2023-10-31T00:32:06;11.30;99.90
10155;DHT22;5118;48.570;7.916;2023-10-31T00:34:36;11.30;99.90
10155;DHT22;5118;48.570;7.916;2023-10-31T00:37:04;11.40;99.90
10155;DHT22;5118;48.570;7.916;2023-10-31T00:39:33;11.40;99.90
10155;DHT22;5118;48.570;7.916;2023-10-31T00:42:01;11.30;99.90
10155;DHT22;5118;48.570;7.916;2023-10-31T00:44:30;11.40;99.90
10155;DHT22;5118;48.570;7.916;2023-10-31T00:46:58;11.30;99.90
10155;DHT22;5118;48.570;7.916;2023-10-31T00:49:26;11.40;99.90
10155;DHT22;5118;48.570;7.916;2023-10-31T00:51:56;11.40;99.90
10155;DHT22;5118;48.570;7.916;2023-10-31T00:54:25;11.40;99.90
10155;DHT22;5118;48.570;7.916;2023-10-31T00:56:53;11.40;99.90
10155;DHT22;5118;48.570;7.916;2023-10-31T00:59:22;11.40;99.90
10155;DHT22;5118;48.570;7.916;2023-10-31T01:01:50;11.40;99.90
10155;DHT22;5118;48.570;7.916;2023-10-31T01:04:19;11.50;99.90
10155;DHT22;5118;48.570;7.916;2023-10-31T01:06:48;11.50;99.90
10155;DHT22;5118;48.570;7.916;2023-10-31T01:09:17;11.50;99.90
10155;DHT22;5118;48.570;7.916;2023-10-31T01:11:46;11.50;99.90
10155;DHT22;5118;48.570;7.916;2023-10-31T01:14:14;11.50;99.90
10155;DHT22;5118;48.570;7.916;2023-10-31T01:16:42;11.50;99.90
10155;DHT22;5118;48.570;7.916;2023-10-31T01:19:11;11.60;99.90
10155;DHT22;5118;48.570;7.916;2023-10-31T01:21:39;11.50;99.90
10155;DHT22;5118;48.570;7.916;2023-10-31T01:24:08;11.50;99.90
10155;DHT22;5118;48.570;7.916;2023-10-31T01:26:38;11.50;99.90
10155;DHT22;5118;48.570;7.916;2023-10-31T01:29:06;11.50;99.90
10155;DHT22;5118;48.570;7.916;2023-10-31T01:31:35;11.50;99.90
10155;DHT22;5118;48.570;7.916;2023-10-31T01:34:22;11.40;99.90
10155;DHT22;5118;48.570;7.916;2023-10-31T01:36:50;11.40;99.90
10155;DHT22;5118;48.570;7.916;2023-10-31T01:39:19;11.40;99.90
10155;DHT22;5118;48.570;7.916;2023-10-31T01:41:49;11.40;99.90
10155;DHT22;5118;48.570;7.916;2023-10-31T01:44:17;11.40;99.90
10155;DHT22;5118;48.570;7.916;2023-10-31T01:46:45;11.40;99.90
10155;DHT22;5118;48.570;7.916;2023-10-31T01:49:14;11.40;99.90
10155;DHT22;5118;48.570;7.916;2023-10-31T01:51:42;11.40;99.90
10155;DHT22;5118;48.570;7.916;2023-10-31T01:54:13;11.30;99.90
10155;DHT22;5118;48.570;7.916;2023-10-31T01:56:42;11.30;99.90
10155;DHT22;5118;48.570;7.916;2023-10-31T01:59:11;11.30;99.90
10155;DHT22;5118;48.570;7.916;2023-10-31T02:01:40;11.30;99.90
10155;DHT22;5118;48.570;7.916;2023-10-31T02:04:09;11.20;99.90
10155;DHT22;5118;48.570;7.916;2023-10-31T02:06:38;11.20;99.90
10155;DHT22;5118;48.570;7.916;2023-10-31T02:09:06;11.10;99.90
10155;DHT22;5118;48.570;7.916;2023-10-31T02:11:35;11.10;99.90
10155;DHT22;5118;48.570;7.916;2023-10-31T02:14:03;11.10;99.90
10155;DHT22;5118;48.570;7.916;2023-10-31T02:16:33;11.00;99.90
10155;DHT22;5118;48.570;7.916;2023-10-31T02:19:03;11.00;99.90
10155;DHT22;5118;48.570;7.916;2023-10-31T02:21:32;11.00;99.90
10155;DHT22;5118;48.570;7.916;2023-10-31T02:24:03;10.90;99.90
10155;DHT22;5118;48.570;7.916;2023-10-31T02:26:32;10.90;99.90
10155;DHT22;5118;48.570;7.916;2023-10-31T02:29:01;10.90;99.90
10155;DHT22;5118;48.570;7.916;2023-10-31T02:31:30;10.80;99.90
10155;DHT22;5118;48.570;7.916;2023-10-31T02:33:58;10.80;99.90
10155;DHT22;5118;48.570;7.916;2023-10-31T02:36:27;10.90;99.90
10155;DHT22;5118;48.570;7.916;2023-10-31T02:38:55;10.90;99.90
10155;DHT22;5118;48.570;7.916;2023-10-31T02:41:25;10.90;99.90
10155;DHT22;5118;48.570;7.916;2023-10-31T02:43:53;10.90;99.90
10155;DHT22;5118;48.570;7.916;2023-10-31T02:46:22;10.90;99.90
10155;DHT22;5118;48.570;7.916;2023-10-31T02:48:51;10.90;99.90
10155;DHT22;5118;48.570;7.916;2023-10-31T02:51:21;10.90;99.90
10155;DHT22;5118;48.570;7.916;2023-10-31T02:53:49;10.90;99.90
10155;DHT22;5118;48.570;7.916;2023-10-31T02:56:21;11.00;99.90
10155;DHT22;5118;48.570;7.916;2023-10-31T02:59:15;11.00;99.90
10155;DHT22;5118;48.570;7.916;2023-10-31T03:01:44;11.00;99.90
10155;DHT22;5118;48.570;7.916;2023-10-31T03:04:12;11.00;99.90
10155;DHT22;5118;48.570;7.916;2023-10-31T03:06:41;11.00;99.90
10155;DHT22;5118;48.570;7.916;2023-10-31T03:09:10;11.00;99.90
10155;DHT22;5118;48.570;7.916;2023-10-31T03:11:38;11.00;99.90
10155;DHT22;5118;48.570;7.916;2023-10-31T03:14:07;11.00;99.90
10155;DHT22;5118;48.570;7.916;2023-10-31T03:16:37;11.00;99.90
10155;DHT22;5118;48.570;7.916;2023-10-31T03:19:06;11.00;99.90
10155;DHT22;5118;48.570;7.916;2023-10-31T03:21:35;11.00;99.90
10155;DHT22;5118;48.570;7.916;2023-10-31T03:24:04;11.00;99.90
10155;DHT22;5118;48.570;7.916;2023-10-31T03:26:32;11.10;99.90
10155;DHT22;5118;48.570;7.916;2023-10-31T03:29:01;11.10;99.90
10155;DHT22;5118;48.570;7.916;2023-10-31T03:31:29;11.00;99.90
10155;DHT22;5118;48.570;7.916;2023-10-31T03:33:59;11.00;99.90
10155;DHT22;5118;48.570;7.916;2023-10-31T03:36:27;11.00;99.90
10155;DHT22;5118;48.570;7.916;2023-10-31T03:38:55;11.00;99.90
10155;DHT22;5118;48.570;7.916;2023-10-31T03:41:24;11.00;99.90
10155;DHT22;5118;48.570;7.916;2023-10-31T03:43:53;11.00;99.90
10155;DHT22;5118;48.570;7.916;2023-10-31T03:46:21;10.90;99.90
10155;DHT22;5118;48.570;7.916;2023-10-31T03:48:49;10.90;99.90
10155;DHT22;5118;48.570;7.916;2023-10-31T03:51:19;10.80;99.90
10155;DHT22;5118;48.570;7.916;2023-10-31T03:53:47;10.80;99.90
10155;DHT22;5118;48.570;7.916;2023-10-31T03:56:17;10.80;99.90
10155;DHT22;5118;48.570;7.916;2023-10-31T03:58:45;10.70;99.90
10155;DHT22;5118;48.570;7.916;2023-10-31T04:01:16;10.80;99.90
10155;DHT22;5118;48.570;7.916;2023-10-31T04:03:45;10.70;99.90
10155;DHT22;5118;48.570;7.916;2023-10-31T04:06:14;10.70;99.90
10155;DHT22;5118;48.570;7.916;2023-10-31T04:08:45;10.70;99.90
10155;DHT22;5118;48.570;7.916;2023-10-31T04:11:13;10.70;99.90
10155;DHT22;5118;48.570;7.916;2023-10-31T04:13:41;10.70;99.90
10155;DHT22;5118;48.570;7.916;2023-10-31T04:16:10;10.70;99.90
10155;DHT22;5118;48.570;7.916;2023-10-31T04:18:38;10.70;99.90
10155;DHT22;5118;48.570;7.916;2023-10-31T04:21:07;10.70;99.90
10155;DHT22;5118;48.570;7.916;2023-10-31T04:23:35;10.80;99.90
10155;DHT22;5118;48.570;7.916;2023-10-31T04:26:07;10.70;99.90
10155;DHT22;5118;48.570;7.916;2023-10-31T04:28:36;10.70;99.90
10155;DHT22;5118;48.570;7.916;2023-10-31T04:31:04;10.70;99.90
10155;DHT22;5118;48.570;7.916;2023-10-31T04:33:32;10.70;99.90
10155;DHT22;5118;48.570;7.916;2023-10-31T04:36:01;10.60;99.90
10155;DHT22;5118;48.570;7.916;2023-10-31T04:38:30;10.70;99.90
10155;DHT22;5118;48.570;7.916;2023-10-31T04:40:58;10.60;99.90
10155;DHT22;5118;48.570;7.916;2023-10-31T04:43:28;10.60;99.90
10155;DHT22;5118;48.570;7.916;2023-10-31T04:45:56;10.60;99.90
10155;DHT22;5118;48.570;7.916;2023-10-31T04:48:25;10.60;99.90
10155;DHT22;5118;48.570;7.916;2023-10-31T04:50:53;10.70;99.90
10155;DHT22;5118;48.570;7.916;2023-10-31T04:53:23;10.70;99.90
10155;DHT22;5118;48.570;7.916;2023-10-31T04:55:52;10.70;99.90
10155;DHT22;5118;48.570;7.916;2023-10-31T04:58:20;10.70;99.90
10155;DHT22;5118;48.570;7.916;2023-10-31T05:00:50;10.70;99.90
10155;DHT22;5118;48.570;7.916;2023-10-31T05:03:18;10.70;99.90
10155;DHT22;5118;48.570;7.916;2023-10-31T05:05:46;10.70;99.90
10155;DHT22;5118;48.570;7.916;2023-10-31T05:08:15;10.70;99.90
10155;DHT22;5118;48.570;7.916;2023-10-31T05:10:43;10.70;99.90
10155;DHT22;5118;48.570;7.916;2023-10-31T05:13:14;10.70;99.90
10155;DHT22;5118;48.570;7.916;2023-10-31T05:15:43;10.70;99.90
10155;DHT22;5118;48.570;7.916;2023-10-31T05:18:12;10.80;99.90
10155;DHT22;5118;48.570;7.916;2023-10-31T05:20:41;10.70;99.90
10155;DHT22;5118;48.570;7.916;2023-10-31T05:23:09;10.70;99.90
10155;DHT22;5118;48.570;7.916;2023-10-31T05:25:38;10.70;99.90
10155;DHT22;5118;48.570;7.916;2023-10-31T05:28:06;10.70;99.90
10155;DHT22;5118;48.570;7.916;2023-10-31T05:30:34;10.70;99.90
10155;DHT22;5118;48.570;7.916;2023-10-31T05:33:03;10.60;99.90
10155;DHT22;5118;48.570;7.916;2023-10-31T05:35:33;10.50;99.90
10155;DHT22;5118;48.570;7.916;2023-10-31T05:38:01;10.40;99.90
10155;DHT22;5118;48.570;7.916;2023-10-31T05:40:29;10.40;99.90
10155;DHT22;5118;48.570;7.916;2023-10-31T05:42:59;10.40;99.90
10155;DHT22;5118;48.570;7.916;2023-10-31T05:45:28;10.40;99.90
10155;DHT22;5118;48.570;7.916;2023-10-31T05:47:56;10.40;99.90
10155;DHT22;5118;48.570;7.916;2023-10-31T05:50:24;10.40;99.90
10155;DHT22;5118;48.570;7.916;2023-10-31T05:52:54;10.40;99.90
10155;DHT22;5118;48.570;7.916;2023-10-31T05:55:22;10.40;99.90
10155;DHT22;5118;48.570;7.916;2023-10-31T05:57:51;10.40;99.90
10155;DHT22;5118;48.570;7.916;2023-10-31T06:00:22;10.40;99.90
10155;DHT22;5118;48.570;7.916;2023-10-31T06:02:50;10.40;99.90
10155;DHT22;5118;48.570;7.916;2023-10-31T06:05:19;10.40;99.90
10155;DHT22;5118;48.570;7.916;2023-10-31T06:07:47;10.40;99.90
10155;DHT22;5118;48.570;7.916;2023-10-31T06:10:17;10.40;99.90
10155;DHT22;5118;48.570;7.916;2023-10-31T06:12:45;10.40;99.90
10155;DHT22;5118;48.570;7.916;2023-10-31T06:15:14;10.30;99.90
10155;DHT22;5118;48.570;7.916;2023-10-31T06:17:42;10.30;99.90
10155;DHT22;5118;48.570;7.916;2023-10-31T06:20:11;10.30;99.90
10155;DHT22;5118;48.570;7.916;2023-10-31T06:22:40;10.30;99.90
10155;DHT22;5118;48.570;7.916;2023-10-31T06:25:08;10.20;99.90
10155;DHT22;5118;48.570;7.916;2023-10-31T06:27:38;10.20;99.90
10155;DHT22;5118;48.570;7.916;2023-10-31T06:30:07;10.20;99.90
10155;DHT22;5118;48.570;7.916;2023-10-31T06:32:53;10.10;99.90
10155;DHT22;5118;48.570;7.916;2023-10-31T06:35:22;10.10;99.90
10155;DHT22;5118;48.570;7.916;2023-10-31T06:37:55;10.10;99.90
10155;DHT22;5118;48.570;7.916;2023-10-31T06:40:24;10.10;99.90
10155;DHT22;5118;48.570;7.916;2023-10-31T06:42:54;10.10;99.90
10155;DHT22;5118;48.570;7.916;2023-10-31T06:45:22;10.20;99.90
10155;DHT22;5118;48.570;7.916;2023-10-31T06:47:50;10.20;99.90
10155;DHT22;5118;48.570;7.916;2023-10-31T06:50:19;10.20;99.90
10155;DHT22;5118;48.570;7.916;2023-10-31T06:52:47;10.20;99.90
10155;DHT22;5118;48.570;7.916;2023-10-31T06:55:16;10.30;99.90
10155;DHT22;5118;48.570;7.916;2023-10-31T06:57:44;10.30;99.90
10155;DHT22;5118;48.570;7.916;2023-10-31T07:00:14;10.40;99.90
10155;DHT22;5118;48.570;7.916;2023-10-31T07:02:43;10.40;99.90
10155;DHT22;5118;48.570;7.916;2023-10-31T07:05:11;10.40;99.90
10155;DHT22;5118;48.570;7.916;2023-10-31T07:07:40;10.50;99.90
10155;DHT22;5118;48.570;7.916;2023-10-31T07:10:09;10.50;99.90
10155;DHT22;5118;48.570;7.916;2023-10-31T07:12:37;10.60;99.90
10155;DHT22;5118;48.570;7.916;2023-10-31T07:15:07;10.60;99.90
10155;DHT22;5118;48.570;7.916;2023-10-31T07:17:36;10.70;99.90
10155;DHT22;5118;48.570;7.916;2023-10-31T07:20:06;10.70;99.90
10155;DHT22;5118;48.570;7.916;2023-10-31T07:22:35;10.70;99.90
10155;DHT22;5118;48.570;7.916;2023-10-31T07:25:04;10.70;99.90
10155;DHT22;5118;48.570;7.916;2023-10-31T07:27:32;10.80;99.90
10155;DHT22;5118;48.570;7.916;2023-10-31T07:30:02;10.80;99.90
10155;DHT22;5118;48.570;7.916;2023-10-31T07:32:31;10.90;99.90
10155;DHT22;5118;48.570;7.916;2023-10-31T07:35:01;10.90;99.90
10155;DHT22;5118;48.570;7.916;2023-10-31T07:37:29;10.90;99.90
10155;DHT22;5118;48.570;7.916;2023-10-31T07:40:02;11.00;99.90
10155;DHT22;5118;48.570;7.916;2023-10-31T07:42:31;11.00;99.90
10155;DHT22;5118;48.570;7.916;2023-10-31T07:44:59;11.10;99.90
10155;DHT22;5118;48.570;7.916;2023-10-31T07:47:28;11.10;99.90
10155;DHT22;5118;48.570;7.916;2023-10-31T07:49:56;11.20;99.90
10155;DHT22;5118;48.570;7.916;2023-10-31T07:52:26;11.20;99.90
10155;DHT22;5118;48.570;7.916;2023-10-31T07:54:54;11.30;99.90
10155;DHT22;5118;48.570;7.916;2023-10-31T07:57:23;11.30;99.90
10155;DHT22;5118;48.570;7.916;2023-10-31T07:59:51;11.40;99.90
10155;DHT22;5118;48.570;7.916;2023-10-31T08:02:19;11.40;99.90
10155;DHT22;5118;48.570;7.916;2023-10-31T08:04:48;11.40;99.90
10155;DHT22;5118;48.570;7.916;2023-10-31T08:07:16;11.40;99.90
10155;DHT22;5118;48.570;7.916;2023-10-31T08:09:46;11.50;99.90
10155;DHT22;5118;48.570;7.916;2023-10-31T08:12:14;11.50;99.90
10155;DHT22;5118;48.570;7.916;2023-10-31T08:14:43;11.50;99.90
10155;DHT22;5118;48.570;7.916;2023-10-31T08:17:11;11.50;99.90
10155;DHT22;5118;48.570;7.916;2023-10-31T08:19:40;11.40;99.90
10155;DHT22;5118;48.570;7.916;2023-10-31T08:22:07;11.40;99.90
10155;DHT22;5118;48.570;7.916;2023-10-31T08:24:36;11.30;99.90
10155;DHT22;5118;48.570;7.916;2023-10-31T08:27:06;11.30;99.90
10155;DHT22;5118;48.570;7.916;2023-10-31T08:29:35;11.30;99.90
10155;DHT22;5118;48.570;7.916;2023-10-31T08:32:05;11.30;99.90
10155;DHT22;5118;48.570;7.916;2023-10-31T08:34:34;11.40;99.90
10155;DHT22;5118;48.570;7.916;2023-10-31T08:37:03;11.40;99.90
10155;DHT22;5118;48.570;7.916;2023-10-31T08:39:31;11.50;99.90
10155;DHT22;5118;48.570;7.916;2023-10-31T08:41:59;11.50;99.90
10155;DHT22;5118;48.570;7.916;2023-10-31T08:44:29;11.50;99.90
10155;DHT22;5118;48.570;7.916;2023-10-31T08:46:58;11.50;99.90
10155;DHT22;5118;48.570;7.916;2023-10-31T08:49:26;11.60;99.90
10155;DHT22;5118;48.570;7.916;2023-10-31T08:51:55;11.50;99.90
10155;DHT22;5118;48.570;7.916;2023-10-31T08:54:23;11.60;99.90
10155;DHT22;5118;48.570;7.916;2023-10-31T08:56:51;11.60;99.90
10155;DHT22;5118;48.570;7.916;2023-10-31T08:59:20;11.70;99.90
10155;DHT22;5118;48.570;7.916;2023-10-31T09:01:50;11.70;99.90
10155;DHT22;5118;48.570;7.916;2023-10-31T09:04:18;11.70;99.90
10155;DHT22;5118;48.570;7.916;2023-10-31T09:06:47;11.80;99.90
10155;DHT22;5118;48.570;7.916;2023-10-31T09:09:15;11.90;99.90
10155;DHT22;5118;48.570;7.916;2023-10-31T09:11:43;11.90;99.90
10155;DHT22;5118;48.570;7.916;2023-10-31T09:14:12;12.00;99.90
10155;DHT22;5118;48.570;7.916;2023-10-31T09:16:41;12.20;99.90
10155;DHT22;5118;48.570;7.916;2023-10-31T09:19:11;12.40;99.90
10155;DHT22;5118;48.570;7.916;2023-10-31T09:21:39;12.50;99.90
10155;DHT22;5118;48.570;7.916;2023-10-31T09:24:09;12.70;99.90
10155;DHT22;5118;48.570;7.916;2023-10-31T09:26:41;12.80;99.90
10155;DHT22;5118;48.570;7.916;2023-10-31T09:29:10;12.90;99.90
10155;DHT22;5118;48.570;7.916;2023-10-31T09:31:54;13.10;99.90
10155;DHT22;5118;48.570;7.916;2023-10-31T09:34:24;13.20;99.90
10155;DHT22;5118;48.570;7.916;2023-10-31T09:36:53;13.30;99.90
10155;DHT22;5118;48.570;7.916;2023-10-31T09:39:23;13.30;99.90
10155;DHT22;5118;48.570;7.916;2023-10-31T09:41:52;13.40;99.90
10155;DHT22;5118;48.570;7.916;2023-10-31T09:44:21;13.50;99.90
10155;DHT22;5118;48.570;7.916;2023-10-31T09:46:51;13.50;99.90
10155;DHT22;5118;48.570;7.916;2023-10-31T09:49:21;13.50;99.90
10155;DHT22;5118;48.570;7.916;2023-10-31T09:51:51;13.50;99.90
10155;DHT22;5118;48.570;7.916;2023-10-31T09:54:21;13.50;99.90
10155;DHT22;5118;48.570;7.916;2023-10-31T09:56:51;13.60;99.90
10155;DHT22;5118;48.570;7.916;2023-10-31T09:59:20;13.70;99.90
10155;DHT22;5118;48.570;7.916;2023-10-31T10:01:48;13.80;99.90
10155;DHT22;5118;48.570;7.916;2023-10-31T10:04:19;13.90;99.90
10155;DHT22;5118;48.570;7.916;2023-10-31T10:06:52;13.90;99.90
10155;DHT22;5118;48.570;7.916;2023-10-31T10:09:28;14.00;99.90
10155;DHT22;5118;48.570;7.916;2023-10-31T10:12:02;14.00;99.90
10155;DHT22;5118;48.570;7.916;2023-10-31T10:14:32;14.10;99.90
10155;DHT22;5118;48.570;7.916;2023-10-31T10:17:15;14.10;99.90
10155;DHT22;5118;48.570;7.916;2023-10-31T10:19:45;14.10;99.90
10155;DHT22;5118;48.570;7.916;2023-10-31T10:22:15;14.10;99.90
10155;DHT22;5118;48.570;7.916;2023-10-31T10:24:48;14.20;99.90
10155;DHT22;5118;48.570;7.916;2023-10-31T10:27:19;14.20;99.90
10155;DHT22;5118;48.570;7.916;2023-10-31T10:29:49;14.30;99.90
10155;DHT22;5118;48.570;7.916;2023-10-31T10:32:21;14.20;99.90
10155;DHT22;5118;48.570;7.916;2023-10-31T10:34:49;14.20;99.90
10155;DHT22;5118;48.570;7.916;2023-10-31T10:37:19;14.20;99.90
10155;DHT22;5118;48.570;7.916;2023-10-31T10:39:51;14.20;99.90
10155;DHT22;5118;48.570;7.916;2023-10-31T10:42:32;14.20;99.90
10155;DHT22;5118;48.570;7.916;2023-10-31T10:45:03;14.10;99.90
10155;DHT22;5118;48.570;7.916;2023-10-31T10:47:33;13.90;99.90
10155;DHT22;5118;48.570;7.916;2023-10-31T10:50:03;13.90;99.90
10155;DHT22;5118;48.570;7.916;2023-10-31T10:52:44;13.80;99.90
10155;DHT22;5118;48.570;7.916;2023-10-31T10:55:19;13.60;99.90
10155;DHT22;5118;48.570;7.916;2023-10-31T10:57:54;13.60;99.90
10155;DHT22;5118;48.570;7.916;2023-10-31T11:00:25;13.50;99.90
10155;DHT22;5118;48.570;7.916;2023-10-31T11:02:55;13.40;99.90
10155;DHT22;5118;48.570;7.916;2023-10-31T11:05:25;13.50;99.90
10155;DHT22;5118;48.570;7.916;2023-10-31T11:07:57;13.60;99.90
10155;DHT22;5118;48.570;7.916;2023-10-31T11:10:28;13.80;99.90
10155;DHT22;5118;48.570;7.916;2023-10-31T11:12:58;14.10;99.90
10155;DHT22;5118;48.570;7.916;2023-10-31T11:15:28;14.50;99.90
10155;DHT22;5118;48.570;7.916;2023-10-31T11:17:59;14.70;99.90
10155;DHT22;5118;48.570;7.916;2023-10-31T11:20:31;14.70;99.90
10155;DHT22;5118;48.570;7.916;2023-10-31T11:23:02;14.60;99.90
10155;DHT22;5118;48.570;7.916;2023-10-31T11:25:33;14.50;99.90
10155;DHT22;5118;48.570;7.916;2023-10-31T11:28:12;14.50;99.90
10155;DHT22;5118;48.570;7.916;2023-10-31T11:30:41;14.50;99.90
10155;DHT22;5118;48.570;7.916;2023-10-31T11:33:14;14.60;99.90
10155;DHT22;5118;48.570;7.916;2023-10-31T11:35:43;14.70;99.90
10155;DHT22;5118;48.570;7.916;2023-10-31T11:38:14;14.70;99.90
10155;DHT22;5118;48.570;7.916;2023-10-31T11:40:59;14.70;99.90
10155;DHT22;5118;48.570;7.916;2023-10-31T11:43:52;14.60;99.90
10155;DHT22;5118;48.570;7.916;2023-10-31T11:46:22;14.60;99.90
10155;DHT22;5118;48.570;7.916;2023-10-31T11:48:53;14.50;99.90
10155;DHT22;5118;48.570;7.916;2023-10-31T11:51:23;14.50;99.90
10155;DHT22;5118;48.570;7.916;2023-10-31T11:53:56;14.50;99.90
10155;DHT22;5118;48.570;7.916;2023-10-31T11:56:25;14.60;99.90
10155;DHT22;5118;48.570;7.916;2023-10-31T11:58:58;14.60;99.90
10155;DHT22;5118;48.570;7.916;2023-10-31T12:01:27;14.70;99.90
10155;DHT22;5118;48.570;7.916;2023-10-31T12:03:55;14.70;99.90
10155;DHT22;5118;48.570;7.916;2023-10-31T12:06:24;14.70;99.90
10155;DHT22;5118;48.570;7.916;2023-10-31T12:08:52;14.70;99.90
10155;DHT22;5118;48.570;7.916;2023-10-31T12:11:23;14.70;99.90
10155;DHT22;5118;48.570;7.916;2023-10-31T12:13:54;14.70;99.90
10155;DHT22;5118;48.570;7.916;2023-10-31T12:16:24;14.80;99.90
10155;DHT22;5118;48.570;7.916;2023-10-31T12:18:57;14.80;99.90
10155;DHT22;5118;48.570;7.916;2023-10-31T12:21:36;14.80;99.90
10155;DHT22;5118;48.570;7.916;2023-10-31T12:24:05;14.80;99.90
10155;DHT22;5118;48.570;7.916;2023-10-31T12:26:36;14.80;99.90
10155;DHT22;5118;48.570;7.916;2023-10-31T12:29:12;14.90;99.90
10155;DHT22;5118;48.570;7.916;2023-10-31T12:31:45;14.90;99.90
10155;DHT22;5118;48.570;7.916;2023-10-31T12:34:14;15.00;99.90
10155;DHT22;5118;48.570;7.916;2023-10-31T12:36:44;14.90;99.90
10155;DHT22;5118;48.570;7.916;2023-10-31T12:39:17;14.90;99.90
10155;DHT22;5118;48.570;7.916;2023-10-31T12:41:49;14.60;99.90
10155;DHT22;5118;48.570;7.916;2023-10-31T12:44:22;14.30;99.90
10155;DHT22;5118;48.570;7.916;2023-10-31T12:46:51;14.10;99.90
10155;DHT22;5118;48.570;7.916;2023-10-31T12:49:21;13.80;99.90
10155;DHT22;5118;48.570;7.916;2023-10-31T12:51:58;13.60;99.90
10155;DHT22;5118;48.570;7.916;2023-10-31T12:54:28;13.40;99.90
10155;DHT22;5118;48.570;7.916;2023-10-31T12:57:03;13.10;99.90
10155;DHT22;5118;48.570;7.916;2023-10-31T12:59:32;12.90;99.90
10155;DHT22;5118;48.570;7.916;2023-10-31T13:02:01;12.80;99.90
10155;DHT22;5118;48.570;7.916;2023-10-31T13:04:32;12.80;99.90
10155;DHT22;5118;48.570;7.916;2023-10-31T13:07:03;12.80;99.90
10155;DHT22;5118;48.570;7.916;2023-10-31T13:09:32;12.80;99.90
10155;DHT22;5118;48.570;7.916;2023-10-31T13:12:05;12.90;99.90
10155;DHT22;5118;48.570;7.916;2023-10-31T13:14:35;12.90;99.90
10155;DHT22;5118;48.570;7.916;2023-10-31T13:17:05;13.00;99.90
10155;DHT22;5118;48.570;7.916;2023-10-31T13:19:35;13.10;99.90
10155;DHT22;5118;48.570;7.916;2023-10-31T13:22:03;13.10;99.90
10155;DHT22;5118;48.570;7.916;2023-10-31T13:24:32;13.20;99.90
10155;DHT22;5118;48.570;7.916;2023-10-31T13:27:03;13.20;99.90
10155;DHT22;5118;48.570;7.916;2023-10-31T13:29:31;13.20;99.90
10155;DHT22;5118;48.570;7.916;2023-10-31T13:32:00;13.30;99.90
10155;DHT22;5118;48.570;7.916;2023-10-31T13:34:30;13.30;99.90
10155;DHT22;5118;48.570;7.916;2023-10-31T13:37:00;13.40;99.90
10155;DHT22;5118;48.570;7.916;2023-10-31T13:39:29;13.40;99.90
10155;DHT22;5118;48.570;7.916;2023-10-31T13:41:59;13.40;99.90
10155;DHT22;5118;48.570;7.916;2023-10-31T13:44:29;13.40;99.90
10155;DHT22;5118;48.570;7.916;2023-10-31T13:46:57;13.50;99.90
10155;DHT22;5118;48.570;7.916;2023-10-31T13:49:26;13.40;99.90
10155;DHT22;5118;48.570;7.916;2023-10-31T13:51:54;13.50;99.90
10155;DHT22;5118;48.570;7.916;2023-10-31T13:54:23;13.60;99.90
10155;DHT22;5118;48.570;7.916;2023-10-31T13:56:51;13.70;99.90
10155;DHT22;5118;48.570;7.916;2023-10-31T13:59:20;13.70;99.90
10155;DHT22;5118;48.570;7.916;2023-10-31T14:01:50;13.80;99.90
10155;DHT22;5118;48.570;7.916;2023-10-31T14:04:19;13.70;99.90
10155;DHT22;5118;48.570;7.916;2023-10-31T14:06:48;13.60;99.90
10155;DHT22;5118;48.570;7.916;2023-10-31T14:09:16;13.60;99.90
10155;DHT22;5118;48.570;7.916;2023-10-31T14:11:45;13.60;99.90
10155;DHT22;5118;48.570;7.916;2023-10-31T14:14:13;13.50;99.90
10155;DHT22;5118;48.570;7.916;2023-10-31T14:16:42;13.50;99.90
10155;DHT22;5118;48.570;7.916;2023-10-31T14:19:14;13.50;99.90
10155;DHT22;5118;48.570;7.916;2023-10-31T14:21:43;13.50;99.90
10155;DHT22;5118;48.570;7.916;2023-10-31T14:24:11;13.50;99.90
10155;DHT22;5118;48.570;7.916;2023-10-31T14:26:40;13.60;99.90
10155;DHT22;5118;48.570;7.916;2023-10-31T14:29:11;13.60;99.90
10155;DHT22;5118;48.570;7.916;2023-10-31T14:31:40;13.70;99.90
10155;DHT22;5118;48.570;7.916;2023-10-31T14:34:09;13.90;99.90
10155;DHT22;5118;48.570;7.916;2023-10-31T14:36:39;14.00;99.90
10155;DHT22;5118;48.570;7.916;2023-10-31T14:39:09;14.00;99.90
10155;DHT22;5118;48.570;7.916;2023-10-31T14:41:39;14.10;99.90
10155;DHT22;5118;48.570;7.916;2023-10-31T14:44:08;14.10;99.90
10155;DHT22;5118;48.570;7.916;2023-10-31T14:46:37;14.10;99.90
10155;DHT22;5118;48.570;7.916;2023-10-31T14:49:05;14.20;99.90
10155;DHT22;5118;48.570;7.916;2023-10-31T14:51:34;14.10;99.90
10155;DHT22;5118;48.570;7.916;2023-10-31T14:54:04;14.20;99.90
10155;DHT22;5118;48.570;7.916;2023-10-31T14:56:33;14.40;99.90
10155;DHT22;5118;48.570;7.916;2023-10-31T14:59:03;14.50;99.90
10155;DHT22;5118;48.570;7.916;2023-10-31T15:01:31;14.50;99.90
10155;DHT22;5118;48.570;7.916;2023-10-31T15:04:01;14.60;99.90
10155;DHT22;5118;48.570;7.916;2023-10-31T15:06:29;14.50;99.90
10155;DHT22;5118;48.570;7.916;2023-10-31T15:08:58;14.50;99.90
10155;DHT22;5118;48.570;7.916;2023-10-31T15:11:28;14.40;99.90
10155;DHT22;5118;48.570;7.916;2023-10-31T15:13:56;14.30;99.90
10155;DHT22;5118;48.570;7.916;2023-10-31T15:16:25;14.10;99.90
10155;DHT22;5118;48.570;7.916;2023-10-31T15:18:53;13.90;99.90
10155;DHT22;5118;48.570;7.916;2023-10-31T15:21:22;13.90;99.90
10155;DHT22;5118;48.570;7.916;2023-10-31T15:23:50;13.80;99.90
10155;DHT22;5118;48.570;7.916;2023-10-31T15:26:22;13.70;99.90
10155;DHT22;5118;48.570;7.916;2023-10-31T15:28:53;13.60;99.90
10155;DHT22;5118;48.570;7.916;2023-10-31T15:31:22;13.60;99.90
10155;DHT22;5118;48.570;7.916;2023-10-31T15:33:50;13.50;99.90
10155;DHT22;5118;48.570;7.916;2023-10-31T15:36:19;13.40;99.90
10155;DHT22;5118;48.570;7.916;2023-10-31T15:38:51;13.40;99.90
10155;DHT22;5118;48.570;7.916;2023-10-31T15:41:19;13.30;99.90
10155;DHT22;5118;48.570;7.916;2023-10-31T15:43:49;13.20;99.90
10155;DHT22;5118;48.570;7.916;2023-10-31T15:46:19;13.20;99.90
10155;DHT22;5118;48.570;7.916;2023-10-31T15:48:48;13.10;99.90
10155;DHT22;5118;48.570;7.916;2023-10-31T15:51:16;13.20;99.90
10155;DHT22;5118;48.570;7.916;2023-10-31T15:53:45;13.20;99.90
10155;DHT22;5118;48.570;7.916;2023-10-31T15:56:13;13.10;99.90
10155;DHT22;5118;48.570;7.916;2023-10-31T15:58:41;12.90;99.90
10155;DHT22;5118;48.570;7.916;2023-10-31T16:01:10;12.80;99.90